createdAt,value
2022-11-23T00:01:33.951Z,30.20
2022-11-23T00:04:07.291Z,29.02
2022-11-23T00:06:35.681Z,33.83
2022-11-23T00:09:03.681Z,29.75
2022-11-23T00:11:31.301Z,40.30
2022-11-23T00:13:58.801Z,32.88
2022-11-23T00:16:30.982Z,34.85
2022-11-23T00:19:00.730Z,35.50
2022-11-23T00:21:30.051Z,31.25
2022-11-23T00:23:58.096Z,38.53
2022-11-23T00:26:25.534Z,35.70
2022-11-23T00:28:53.172Z,40.63
2022-11-23T00:31:21.950Z,40.40
2022-11-23T00:33:54.502Z,34.13
2022-11-23T00:36:23.637Z,39.13
2022-11-23T00:38:54.813Z,40.70
2022-11-23T00:41:25.097Z,42.17
2022-11-23T00:43:53.046Z,36.15
2022-11-23T00:46:23.685Z,40.92
2022-11-23T00:48:52.905Z,37.35
2022-11-23T00:51:26.507Z,43.67
2022-11-23T00:53:54.579Z,39.22
2022-11-23T00:56:24.641Z,36.50
2022-11-23T01:01:38.946Z,35.45
2022-11-23T01:04:09.381Z,38.38
2022-11-23T01:06:39.498Z,39.05
2022-11-23T01:09:12.252Z,32.67
2022-11-23T01:11:40.138Z,31.58
2022-11-23T01:14:07.960Z,36.92
2022-11-23T01:16:38.490Z,35.40
2022-11-23T01:19:09.024Z,31.83
2022-11-23T01:21:37.362Z,36.45
2022-11-23T01:24:10.501Z,30.55
2022-11-23T01:26:40.059Z,33.85
2022-11-23T01:29:08.012Z,37.28
2022-11-23T01:31:35.402Z,34.72
2022-11-23T01:34:04.320Z,33.95
2022-11-23T01:36:35.135Z,32.53
2022-11-23T01:39:05.020Z,32.33
2022-11-23T01:41:38.322Z,34.08
2022-11-23T01:44:27.752Z,33.33
2022-11-23T01:46:59.240Z,31.35
2022-11-23T01:49:29.510Z,24.80
2022-11-23T01:52:02.695Z,25.77
2022-11-23T01:57:39.527Z,30.10
2022-11-23T02:00:08.701Z,24.17
2022-11-23T02:02:48.408Z,24.92
2022-11-23T02:07:50.298Z,22.67
2022-11-23T02:10:19.076Z,22.35
2022-11-23T02:12:46.525Z,17.52
2022-11-23T02:15:36.034Z,13.73
2022-11-23T02:18:09.508Z,11.40
2022-11-23T02:20:37.605Z,10.10
2022-11-23T02:23:31.328Z,6.80
2022-11-23T02:26:21.371Z,3.25
2022-11-23T02:28:54.981Z,2.30
2022-11-23T02:31:23.154Z,1.95
2022-11-23T02:33:53.637Z,1.27
2022-11-23T02:36:40.559Z,1.50
2022-11-23T02:39:10.350Z,0.70
2022-11-23T02:41:43.322Z,2.65
2022-11-23T02:44:36.539Z,1.33
2022-11-23T02:47:05.218Z,1.17
2022-11-23T02:49:32.991Z,1.48
2022-11-23T02:52:01.791Z,2.53
2022-11-23T02:54:30.033Z,1.42
2022-11-23T02:56:58.572Z,3.90
2022-11-23T02:59:26.205Z,2.22
2022-11-23T03:01:54.302Z,2.33
2022-11-23T03:04:27.415Z,3.25
2022-11-23T03:06:55.958Z,2.13
2022-11-23T03:09:26.485Z,1.30
2022-11-23T03:11:54.900Z,2.15
2022-11-23T03:14:30.537Z,2.65
2022-11-23T03:17:12.633Z,2.97
2022-11-23T03:19:42.028Z,1.80
2022-11-23T03:22:11.183Z,2.47
2022-11-23T03:24:39.066Z,1.77
2022-11-23T03:27:09.747Z,2.65
2022-11-23T03:29:38.067Z,2.25
2022-11-23T03:32:11.723Z,3.65
2022-11-23T03:34:41.146Z,2.55
2022-11-23T03:37:09.764Z,2.47
2022-11-23T03:42:42.552Z,2.40
2022-11-23T03:45:10.526Z,2.25
2022-11-23T03:47:38.072Z,4.13
2022-11-23T03:50:06.411Z,3.10
2022-11-23T03:52:33.848Z,2.70
2022-11-23T03:55:01.501Z,2.53
2022-11-23T03:57:29.174Z,3.25
2022-11-23T03:59:56.904Z,2.60
2022-11-23T04:02:24.943Z,2.80
2022-11-23T04:05:03.024Z,4.35
2022-11-23T04:08:02.701Z,4.35
2022-11-23T04:10:30.381Z,2.78
2022-11-23T04:13:07.520Z,3.65
2022-11-23T04:18:03.992Z,3.35
2022-11-23T04:20:31.844Z,3.38
2022-11-23T04:22:59.240Z,2.90
2022-11-23T04:25:29.938Z,3.38
2022-11-23T04:27:59.520Z,2.92
2022-11-23T04:30:26.975Z,3.03
2022-11-23T04:32:57.812Z,3.60
2022-11-23T04:35:27.265Z,3.30
2022-11-23T04:37:55.437Z,4.57
2022-11-23T04:40:26.336Z,3.67
2022-11-23T04:43:02.178Z,3.00
2022-11-23T04:45:33.636Z,3.38
2022-11-23T04:48:07.227Z,3.60
2022-11-23T04:50:40.345Z,3.88
2022-11-23T04:53:10.401Z,4.80
2022-11-23T04:55:43.206Z,6.95
2022-11-23T04:58:12.579Z,3.83
2022-11-23T05:00:40.585Z,4.78
2022-11-23T05:03:09.354Z,4.28
2022-11-23T05:05:40.761Z,4.55
2022-11-23T05:08:09.886Z,6.00
2022-11-23T05:10:53.043Z,4.82
2022-11-23T05:13:21.171Z,5.53
2022-11-23T05:15:50.369Z,5.53
2022-11-23T05:18:24.282Z,5.13
2022-11-23T05:20:52.324Z,5.38
2022-11-23T05:26:11.846Z,3.97
2022-11-23T05:28:41.193Z,5.10
2022-11-23T05:31:13.385Z,4.25
2022-11-23T05:33:44.124Z,3.78
2022-11-23T05:36:14.771Z,6.95
2022-11-23T05:38:43.697Z,4.13
2022-11-23T05:41:16.633Z,4.72
2022-11-23T05:43:45.740Z,3.58
2022-11-23T05:46:19.480Z,6.32
2022-11-23T05:48:48.163Z,3.00
2022-11-23T05:51:17.252Z,3.05
2022-11-23T05:53:47.458Z,3.15
2022-11-23T05:56:21.278Z,2.88
2022-11-23T05:59:09.379Z,2.90
2022-11-23T06:01:40.271Z,2.88
2022-11-23T06:04:10.503Z,3.65
2022-11-23T06:06:43.579Z,3.95
2022-11-23T06:09:12.923Z,3.75
2022-11-23T06:11:45.325Z,3.03
2022-11-23T06:14:18.046Z,3.60
2022-11-23T06:16:50.722Z,4.10
2022-11-23T06:19:33.238Z,3.92
2022-11-23T06:22:02.473Z,5.00
2022-11-23T06:24:41.958Z,3.70
2022-11-23T06:27:36.100Z,3.20
2022-11-23T06:30:09.610Z,2.80
2022-11-23T06:32:39.661Z,2.67
2022-11-23T06:35:08.222Z,2.97
2022-11-23T06:37:40.159Z,2.50
2022-11-23T06:42:39.116Z,2.85
2022-11-23T06:45:15.905Z,2.70
2022-11-23T06:47:44.268Z,3.70
2022-11-23T06:50:12.351Z,3.28
2022-11-23T06:52:40.346Z,3.38
2022-11-23T06:55:08.508Z,3.38
2022-11-23T06:57:36.541Z,4.75
2022-11-23T07:00:06.159Z,3.75
2022-11-23T07:02:38.244Z,5.65
2022-11-23T07:05:06.778Z,5.13
2022-11-23T07:07:36.076Z,3.35
2022-11-23T07:13:08.044Z,5.65
2022-11-23T07:15:37.708Z,3.42
2022-11-23T07:18:07.423Z,4.80
2022-11-23T07:20:36.582Z,6.78
2022-11-23T07:23:08.433Z,4.85
2022-11-23T07:25:37.700Z,3.55
2022-11-23T07:28:07.550Z,4.72
2022-11-23T07:30:36.229Z,3.58
2022-11-23T07:33:14.183Z,3.78
2022-11-23T07:38:29.564Z,3.65
2022-11-23T07:40:59.825Z,3.80
2022-11-23T07:43:52.642Z,3.75
2022-11-23T07:46:23.198Z,2.90
2022-11-23T07:48:52.063Z,3.85
2022-11-23T07:51:22.347Z,3.63
2022-11-23T07:53:52.882Z,5.47
2022-11-23T07:56:21.485Z,4.22
2022-11-23T07:58:49.764Z,5.45
2022-11-23T08:03:50.401Z,4.68
2022-11-23T08:06:20.084Z,5.15
2022-11-23T08:08:51.322Z,4.95
2022-11-23T08:11:30.466Z,6.75
2022-11-23T08:14:02.470Z,6.22
2022-11-23T08:16:36.292Z,4.18
2022-11-23T08:19:07.547Z,5.53
2022-11-23T08:21:37.168Z,5.35
2022-11-23T08:24:05.329Z,4.40
2022-11-23T08:26:33.220Z,4.78
2022-11-23T08:29:01.548Z,4.97
2022-11-23T08:31:29.821Z,4.93
2022-11-23T08:34:03.331Z,6.53
2022-11-23T08:36:31.642Z,6.55
2022-11-23T08:38:59.184Z,9.38
2022-11-23T08:41:27.905Z,5.60
2022-11-23T08:43:58.827Z,6.25
2022-11-23T08:46:26.763Z,5.60
2022-11-23T08:48:54.616Z,6.47
2022-11-23T08:51:39.222Z,6.13
2022-11-23T08:54:09.177Z,5.97
2022-11-23T08:56:44.144Z,5.60
2022-11-23T08:59:12.587Z,6.22
2022-11-23T09:01:40.485Z,6.25
2022-11-23T09:04:09.043Z,7.22
2022-11-23T09:06:36.935Z,5.55
2022-11-23T09:09:05.289Z,6.38
2022-11-23T09:14:02.064Z,6.40
2022-11-23T09:19:01.855Z,8.73
2022-11-23T09:21:34.217Z,7.30
2022-11-23T09:24:05.153Z,6.88
2022-11-23T09:26:34.212Z,6.47
2022-11-23T09:29:02.248Z,5.93
2022-11-23T09:31:30.415Z,8.00
2022-11-23T09:36:28.582Z,6.82
2022-11-23T09:38:57.684Z,5.70
2022-11-23T09:42:04.247Z,8.48
2022-11-23T09:45:09.779Z,7.57
2022-11-23T09:48:08.819Z,6.80
2022-11-23T09:50:59.332Z,9.88
2022-11-23T09:53:31.345Z,6.82
2022-11-23T09:55:59.269Z,10.50
2022-11-23T09:58:34.277Z,7.75
2022-11-23T10:01:06.663Z,7.47
2022-11-23T10:03:48.241Z,7.88
2022-11-23T10:06:26.937Z,7.97
2022-11-23T10:09:19.403Z,7.65
2022-11-23T10:12:23.447Z,6.93
2022-11-23T10:15:22.023Z,8.15
2022-11-23T10:18:23.226Z,8.50
2022-11-23T10:21:09.560Z,7.85
2022-11-23T10:23:41.219Z,9.85
2022-11-23T10:26:16.513Z,8.77
2022-11-23T10:28:50.231Z,6.40
2022-11-23T10:31:21.391Z,7.85
2022-11-23T10:33:56.361Z,7.00
2022-11-23T10:36:24.582Z,8.82
2022-11-23T10:39:09.806Z,9.43
2022-11-23T10:41:37.831Z,8.52
2022-11-23T10:47:41.002Z,8.77
2022-11-23T10:50:34.436Z,8.90
2022-11-23T10:53:38.561Z,8.70
2022-11-23T10:56:13.872Z,9.15
2022-11-23T10:58:46.146Z,8.18
2022-11-23T11:01:31.886Z,7.13
2022-11-23T11:04:06.667Z,8.77
2022-11-23T11:06:37.150Z,7.47
2022-11-23T11:09:18.300Z,7.50
2022-11-23T11:11:53.281Z,6.53
2022-11-23T11:14:24.010Z,7.95
2022-11-23T11:16:54.349Z,8.88
2022-11-23T11:19:31.256Z,8.80
2022-11-23T11:22:01.176Z,7.78
2022-11-23T11:24:37.150Z,6.07
2022-11-23T11:27:25.552Z,8.15
2022-11-23T11:29:57.299Z,8.73
2022-11-23T11:32:34.994Z,6.20
2022-11-23T11:35:39.408Z,9.13
2022-11-23T11:38:37.547Z,10.10
2022-11-23T11:41:11.375Z,6.47
2022-11-23T11:43:45.300Z,6.65
2022-11-23T11:46:38.241Z,8.05
2022-11-23T11:49:18.615Z,7.85
2022-11-23T11:51:52.697Z,6.57
2022-11-23T11:54:37.450Z,7.03
2022-11-23T11:57:22.830Z,8.80
2022-11-23T11:59:56.217Z,9.32
2022-11-23T12:02:33.369Z,6.57
2022-11-23T12:05:18.574Z,6.15
2022-11-23T12:08:05.546Z,7.18
2022-11-23T12:10:59.565Z,6.40
2022-11-23T12:13:34.147Z,11.48
2022-11-23T12:16:10.946Z,8.00
2022-11-23T12:18:46.283Z,7.25
2022-11-23T12:21:44.323Z,9.75
2022-11-23T12:24:33.111Z,10.90
2022-11-23T12:27:25.531Z,9.88
2022-11-23T12:30:00.190Z,7.68
2022-11-23T12:32:59.041Z,6.72
2022-11-23T12:35:48.564Z,8.27
2022-11-23T12:38:51.597Z,7.07
2022-11-23T12:41:33.357Z,8.52
2022-11-23T12:44:01.116Z,7.82
2022-11-23T12:49:52.695Z,9.23
2022-11-23T12:52:53.248Z,11.82
2022-11-23T12:55:36.483Z,8.13
2022-11-23T12:58:33.594Z,13.85
2022-11-23T13:01:11.753Z,7.93
2022-11-23T13:04:16.972Z,10.32
2022-11-23T13:07:28.419Z,10.30
2022-11-23T13:10:33.487Z,10.88
2022-11-23T13:13:17.401Z,9.35
2022-11-23T13:16:04.239Z,9.10
2022-11-23T13:19:04.172Z,8.85
2022-11-23T13:21:37.693Z,9.20
2022-11-23T13:24:24.368Z,9.60
2022-11-23T13:27:14.116Z,9.95
2022-11-23T13:29:50.887Z,9.13
2022-11-23T13:32:40.927Z,10.50
2022-11-23T13:35:17.757Z,12.32
2022-11-23T13:37:57.783Z,10.27
2022-11-23T13:40:37.054Z,9.13
2022-11-23T13:43:18.457Z,9.77
2022-11-23T13:45:46.674Z,10.57
2022-11-23T13:48:49.024Z,11.55
2022-11-23T13:51:09.131Z,9.48
2022-11-23T13:53:40.210Z,9.07
2022-11-23T13:56:31.026Z,7.93
2022-11-23T13:59:19.835Z,10.73
2022-11-23T14:02:12.927Z,12.68
2022-11-23T14:04:42.616Z,13.55
2022-11-23T14:07:27.884Z,10.90
2022-11-23T14:09:57.695Z,10.32
2022-11-23T14:12:44.043Z,11.15
2022-11-23T14:15:21.780Z,9.98
2022-11-23T14:18:11.264Z,10.20
2022-11-23T14:20:41.875Z,12.27
2022-11-23T14:23:47.252Z,7.32
2022-11-23T14:26:52.601Z,11.07
2022-11-23T14:29:41.147Z,14.63
2022-11-23T14:32:20.624Z,10.77
2022-11-23T14:35:27.731Z,9.13
2022-11-23T14:38:32.187Z,9.43
2022-11-23T14:41:22.362Z,11.15
2022-11-23T14:43:50.221Z,9.15
2022-11-23T14:46:25.089Z,10.50
2022-11-23T14:49:06.289Z,16.67
2022-11-23T14:51:35.275Z,11.85
2022-11-23T14:54:10.351Z,8.50
2022-11-23T14:56:49.248Z,10.45
2022-11-23T14:59:29.974Z,11.00
2022-11-23T15:01:58.850Z,12.88
2022-11-23T15:04:38.149Z,10.52
2022-11-23T15:07:13.090Z,9.18
2022-11-23T15:10:02.146Z,9.55
2022-11-23T15:12:45.170Z,12.50
2022-11-23T15:15:23.512Z,11.55
2022-11-23T15:18:09.253Z,12.10
2022-11-23T15:20:44.801Z,11.23
2022-11-23T15:23:24.000Z,12.52
2022-11-23T15:25:55.888Z,11.00
2022-11-23T15:28:27.551Z,10.00
2022-11-23T15:30:58.528Z,11.85
2022-11-23T15:33:27.149Z,16.50
2022-11-23T15:35:55.403Z,11.40
2022-11-23T15:40:52.169Z,10.95
2022-11-23T15:43:20.593Z,15.15
2022-11-23T15:48:16.709Z,13.55
2022-11-23T15:50:54.959Z,12.02
2022-11-23T15:53:30.105Z,15.02
2022-11-23T15:56:06.312Z,13.07
2022-11-23T15:59:02.290Z,16.45
2022-11-23T16:01:30.557Z,11.60
2022-11-23T16:04:04.967Z,17.70
2022-11-23T16:06:41.887Z,12.95
2022-11-23T16:09:54.475Z,12.43
2022-11-23T16:12:31.073Z,11.88
2022-11-23T16:15:22.853Z,13.57
2022-11-23T16:17:50.472Z,14.07
2022-11-23T16:20:17.982Z,11.60
2022-11-23T16:22:49.856Z,14.35
2022-11-23T16:25:29.025Z,14.88
2022-11-23T16:28:05.540Z,13.00
2022-11-23T16:30:41.454Z,13.20
2022-11-23T16:33:20.532Z,11.15
2022-11-23T16:35:48.706Z,12.90
2022-11-23T16:38:16.812Z,10.60
2022-11-23T16:40:45.281Z,12.80
2022-11-23T16:45:44.291Z,14.80
2022-11-23T16:48:27.164Z,14.70
2022-11-23T16:50:56.293Z,16.40
2022-11-23T16:53:26.194Z,14.32
2022-11-23T16:55:56.002Z,12.38
2022-11-23T16:58:40.442Z,13.00
2022-11-23T17:01:19.405Z,12.65
2022-11-23T17:03:46.927Z,18.13
2022-11-23T17:06:18.647Z,13.52
2022-11-23T17:08:46.577Z,14.23
2022-11-23T17:11:25.760Z,16.67
2022-11-23T17:13:56.212Z,14.90
2022-11-23T17:16:26.023Z,14.63
2022-11-23T17:18:54.028Z,12.43
2022-11-23T17:21:21.650Z,10.68
2022-11-23T17:23:49.236Z,11.70
2022-11-23T17:26:25.887Z,10.85
2022-11-23T17:28:53.730Z,10.63
2022-11-23T17:31:21.861Z,10.60
2022-11-23T17:33:49.621Z,10.90
2022-11-23T17:36:17.306Z,11.05
2022-11-23T17:38:47.413Z,17.90
2022-11-23T17:41:14.974Z,11.07
2022-11-23T17:43:42.878Z,11.50
2022-11-23T17:46:23.959Z,9.63
2022-11-23T17:48:57.402Z,9.38
2022-11-23T17:51:25.764Z,10.55
2022-11-23T17:53:53.254Z,9.40
2022-11-23T17:56:23.870Z,10.15
2022-11-23T17:58:52.719Z,16.33
2022-11-23T18:01:22.019Z,11.00
2022-11-23T18:03:49.928Z,9.77
2022-11-23T18:06:23.512Z,12.23
2022-11-23T18:08:52.194Z,9.65
2022-11-23T18:11:34.419Z,11.88
2022-11-23T18:14:03.507Z,10.57
2022-11-23T18:19:18.278Z,10.82
2022-11-23T18:21:45.775Z,12.63
2022-11-23T18:24:13.304Z,11.45
2022-11-23T18:26:41.399Z,9.18
2022-11-23T18:29:15.583Z,10.45
2022-11-23T18:31:44.572Z,13.10
2022-11-23T18:34:12.105Z,9.50
2022-11-23T18:36:40.009Z,9.63
2022-11-23T18:41:54.821Z,9.85
2022-11-23T18:44:22.240Z,10.35
2022-11-23T18:46:49.857Z,13.15
2022-11-23T18:49:17.474Z,8.27
2022-11-23T18:51:45.013Z,15.73
2022-11-23T18:54:12.393Z,9.55
2022-11-23T18:56:40.267Z,10.55
2022-11-23T18:59:15.590Z,9.15
2022-11-23T19:01:57.027Z,10.85
2022-11-23T19:04:24.460Z,9.10
2022-11-23T19:06:51.979Z,9.77
2022-11-23T19:09:19.420Z,9.90
2022-11-23T19:11:46.910Z,8.80
2022-11-23T19:14:14.382Z,9.77
2022-11-23T19:16:42.059Z,9.70
2022-11-23T19:19:11.855Z,12.60
2022-11-23T19:21:39.510Z,12.93
2022-11-23T19:24:07.416Z,10.93
2022-11-23T19:26:40.871Z,10.90
2022-11-23T19:29:08.449Z,10.60
2022-11-23T19:31:35.887Z,11.90
2022-11-23T19:34:10.935Z,12.45
2022-11-23T19:39:06.051Z,10.55
2022-11-23T19:41:38.503Z,13.60
2022-11-23T19:44:26.113Z,11.55
2022-11-23T19:46:53.550Z,10.43
2022-11-23T19:49:21.059Z,10.93
2022-11-23T19:51:51.389Z,8.50
2022-11-23T19:54:18.908Z,10.52
2022-11-23T19:56:46.408Z,11.40
2022-11-23T19:59:14.057Z,10.00
2022-11-23T20:01:41.505Z,12.55
2022-11-23T20:04:10.931Z,11.65
2022-11-23T20:06:42.668Z,10.57
2022-11-23T20:09:13.224Z,11.23
2022-11-23T20:11:41.166Z,12.73
2022-11-23T20:14:11.249Z,13.70
2022-11-23T20:16:39.414Z,10.73
2022-11-23T20:19:08.768Z,11.18
2022-11-23T20:21:37.564Z,11.85
2022-11-23T20:24:07.928Z,12.32
2022-11-23T20:26:36.800Z,13.52
2022-11-23T20:29:06.274Z,11.73
2022-11-23T20:31:34.605Z,12.40
2022-11-23T20:34:06.454Z,12.18
2022-11-23T20:36:37.733Z,17.40
2022-11-23T20:39:08.214Z,10.30
2022-11-23T20:41:37.218Z,15.43
2022-11-23T20:44:07.740Z,9.18
2022-11-23T20:47:05.151Z,8.35
2022-11-23T20:49:22.918Z,10.48
2022-11-23T20:51:50.405Z,9.35
2022-11-23T20:54:17.960Z,8.88
2022-11-23T20:56:45.592Z,8.80
2022-11-23T20:59:13.382Z,8.30
2022-11-23T21:01:41.095Z,8.40
2022-11-23T21:04:09.345Z,7.75
2022-11-23T21:06:39.451Z,8.93
2022-11-23T21:09:09.581Z,7.55
2022-11-23T21:11:56.144Z,7.97
2022-11-23T21:14:28.255Z,7.38
2022-11-23T21:16:59.225Z,8.80
2022-11-23T21:19:39.331Z,9.68
2022-11-23T21:22:09.617Z,8.18
2022-11-23T21:24:38.012Z,6.70
2022-11-23T21:27:07.166Z,6.90
2022-11-23T21:29:35.061Z,7.25
2022-11-23T21:32:02.554Z,8.30
2022-11-23T21:34:30.847Z,7.47
2022-11-23T21:36:58.739Z,6.63
2022-11-23T21:39:26.389Z,7.40
2022-11-23T21:41:54.653Z,7.32
2022-11-23T21:44:23.145Z,9.35
2022-11-23T21:46:51.243Z,8.10
2022-11-23T21:49:18.820Z,7.57
2022-11-23T21:51:46.477Z,7.28
2022-11-23T21:54:16.114Z,8.50
2022-11-23T21:56:45.979Z,7.90
2022-11-23T21:59:13.712Z,8.25
2022-11-23T22:01:42.311Z,8.35
2022-11-23T22:04:13.087Z,8.75
2022-11-23T22:06:42.407Z,7.00
2022-11-23T22:09:10.312Z,9.75
2022-11-23T22:11:41.346Z,8.93
2022-11-23T22:14:17.292Z,9.82
2022-11-23T22:16:47.568Z,9.32
2022-11-23T22:19:16.595Z,9.00
2022-11-23T22:21:45.295Z,10.02
2022-11-23T22:24:15.200Z,8.85
2022-11-23T22:26:43.310Z,8.65
2022-11-23T22:29:11.145Z,10.68
2022-11-23T22:31:39.335Z,9.43
2022-11-23T22:34:09.404Z,10.23
2022-11-23T22:36:37.057Z,10.13
2022-11-23T22:39:06.789Z,9.75
2022-11-23T22:41:37.678Z,9.18
2022-11-23T22:44:07.930Z,8.82
2022-11-23T22:46:36.615Z,8.85
2022-11-23T22:49:04.756Z,8.93
2022-11-23T22:51:32.647Z,10.90
2022-11-23T22:54:01.236Z,8.13
2022-11-23T22:56:30.991Z,10.00
2022-11-23T22:58:59.769Z,8.80
2022-11-23T23:01:30.389Z,10.98
2022-11-23T23:04:00.006Z,9.65
2022-11-23T23:06:30.102Z,11.05
2022-11-23T23:08:59.541Z,14.63
2022-11-23T23:11:29.812Z,10.00
2022-11-23T23:13:57.824Z,8.50
2022-11-23T23:16:27.209Z,8.95
2022-11-23T23:18:57.355Z,7.72
2022-11-23T23:21:26.371Z,8.95
2022-11-23T23:24:02.726Z,9.32
2022-11-23T23:26:30.805Z,11.02
2022-11-23T23:29:01.831Z,10.10
2022-11-23T23:31:30.643Z,10.77
2022-11-23T23:33:59.656Z,9.43
2022-11-23T23:36:27.288Z,9.95
2022-11-23T23:38:54.976Z,9.60
2022-11-23T23:41:22.589Z,9.48
2022-11-23T23:43:50.293Z,9.52
2022-11-23T23:46:18.268Z,11.02
2022-11-23T23:48:45.974Z,9.27
2022-11-23T23:51:19.161Z,9.73
2022-11-23T23:53:47.435Z,11.10
2022-11-23T23:56:18.554Z,9.50
